sensor_id;sensor_type;location;lat;lon;timestamp;P1;durP1;ratioP1;P2;durP2;ratioP2
32250;SDS011;41295;48.518;9.206;2022-12-18T00:00:10;96.55;;;33.33;;
32250;SDS011;41295;48.518;9.206;2022-12-18T00:02:14;92.22;;;31.83;;
32250;SDS011;41295;48.518;9.206;2022-12-18T00:04:18;92.60;;;30.98;;
32250;SDS011;41295;48.518;9.206;2022-12-18T00:06:23;98.90;;;29.38;;
32250;SDS011;41295;48.518;9.206;2022-12-18T00:08:28;81.78;;;28.63;;
32250;SDS011;41295;48.518;9.206;2022-12-18T00:10:31;85.97;;;29.73;;
32250;SDS011;41295;48.518;9.206;2022-12-18T00:12:33;74.78;;;28.75;;
32250;SDS011;41295;48.518;9.206;2022-12-18T00:14:36;78.15;;;29.05;;
32250;SDS011;41295;48.518;9.206;2022-12-18T00:16:43;74.95;;;28.15;;
32250;SDS011;41295;48.518;9.206;2022-12-18T00:18:46;75.15;;;28.83;;
32250;SDS011;41295;48.518;9.206;2022-12-18T00:20:49;92.55;;;29.50;;
32250;SDS011;41295;48.518;9.206;2022-12-18T00:22:52;73.65;;;27.90;;
32250;SDS011;41295;48.518;9.206;2022-12-18T00:24:56;84.60;;;29.75;;
32250;SDS011;41295;48.518;9.206;2022-12-18T00:26:58;76.20;;;28.83;;
32250;SDS011;41295;48.518;9.206;2022-12-18T00:29:03;82.13;;;29.88;;
32250;SDS011;41295;48.518;9.206;2022-12-18T00:31:07;78.07;;;29.35;;
32250;SDS011;41295;48.518;9.206;2022-12-18T00:33:11;79.28;;;28.23;;
32250;SDS011;41295;48.518;9.206;2022-12-18T00:35:14;78.68;;;29.15;;
32250;SDS011;41295;48.518;9.206;2022-12-18T00:37:16;74.88;;;29.50;;
32250;SDS011;41295;48.518;9.206;2022-12-18T00:39:20;75.63;;;30.67;;
32250;SDS011;41295;48.518;9.206;2022-12-18T00:41:24;78.60;;;29.17;;
32250;SDS011;41295;48.518;9.206;2022-12-18T00:43:45;80.20;;;29.60;;
32250;SDS011;41295;48.518;9.206;2022-12-18T00:45:48;79.32;;;29.30;;
32250;SDS011;41295;48.518;9.206;2022-12-18T00:47:51;72.68;;;29.83;;
32250;SDS011;41295;48.518;9.206;2022-12-18T00:49:53;72.50;;;27.13;;
32250;SDS011;41295;48.518;9.206;2022-12-18T00:51:56;77.57;;;30.75;;
32250;SDS011;41295;48.518;9.206;2022-12-18T00:53:59;78.93;;;28.70;;
32250;SDS011;41295;48.518;9.206;2022-12-18T00:56:02;71.82;;;28.52;;
32250;SDS011;41295;48.518;9.206;2022-12-18T00:58:06;79.82;;;30.42;;
32250;SDS011;41295;48.518;9.206;2022-12-18T01:00:10;75.82;;;29.92;;
32250;SDS011;41295;48.518;9.206;2022-12-18T01:02:14;64.90;;;27.70;;
32250;SDS011;41295;48.518;9.206;2022-12-18T01:04:17;82.80;;;30.40;;
32250;SDS011;41295;48.518;9.206;2022-12-18T01:06:20;83.53;;;30.23;;
32250;SDS011;41295;48.518;9.206;2022-12-18T01:08:23;79.35;;;29.00;;
32250;SDS011;41295;48.518;9.206;2022-12-18T01:10:26;74.40;;;28.88;;
32250;SDS011;41295;48.518;9.206;2022-12-18T01:12:28;78.13;;;29.55;;
32250;SDS011;41295;48.518;9.206;2022-12-18T01:14:32;80.80;;;31.02;;
32250;SDS011;41295;48.518;9.206;2022-12-18T01:16:35;75.22;;;28.42;;
32250;SDS011;41295;48.518;9.206;2022-12-18T01:18:38;80.85;;;30.77;;
32250;SDS011;41295;48.518;9.206;2022-12-18T01:20:41;73.60;;;27.40;;
32250;SDS011;41295;48.518;9.206;2022-12-18T01:22:43;75.65;;;29.92;;
32250;SDS011;41295;48.518;9.206;2022-12-18T01:24:46;69.65;;;27.92;;
32250;SDS011;41295;48.518;9.206;2022-12-18T01:26:49;74.65;;;27.38;;
32250;SDS011;41295;48.518;9.206;2022-12-18T01:28:53;66.40;;;25.77;;
32250;SDS011;41295;48.518;9.206;2022-12-18T01:30:57;68.80;;;28.67;;
32250;SDS011;41295;48.518;9.206;2022-12-18T01:33:10;67.40;;;26.80;;
32250;SDS011;41295;48.518;9.206;2022-12-18T01:35:13;67.43;;;27.40;;
32250;SDS011;41295;48.518;9.206;2022-12-18T01:37:16;67.35;;;28.50;;
32250;SDS011;41295;48.518;9.206;2022-12-18T01:39:18;67.70;;;28.23;;
32250;SDS011;41295;48.518;9.206;2022-12-18T01:41:22;70.13;;;27.10;;
32250;SDS011;41295;48.518;9.206;2022-12-18T01:43:40;60.08;;;25.92;;
32250;SDS011;41295;48.518;9.206;2022-12-18T01:45:47;67.05;;;26.80;;
32250;SDS011;41295;48.518;9.206;2022-12-18T01:47:51;67.15;;;27.42;;
32250;SDS011;41295;48.518;9.206;2022-12-18T01:49:56;68.53;;;27.65;;
32250;SDS011;41295;48.518;9.206;2022-12-18T01:52:00;70.75;;;27.05;;
32250;SDS011;41295;48.518;9.206;2022-12-18T01:54:03;63.72;;;25.88;;
32250;SDS011;41295;48.518;9.206;2022-12-18T01:56:06;64.97;;;25.92;;
32250;SDS011;41295;48.518;9.206;2022-12-18T01:58:09;63.25;;;26.42;;
32250;SDS011;41295;48.518;9.206;2022-12-18T02:00:13;65.35;;;25.63;;
32250;SDS011;41295;48.518;9.206;2022-12-18T02:02:18;58.90;;;25.60;;
32250;SDS011;41295;48.518;9.206;2022-12-18T02:04:24;62.60;;;26.55;;
32250;SDS011;41295;48.518;9.206;2022-12-18T02:06:28;65.15;;;26.60;;
32250;SDS011;41295;48.518;9.206;2022-12-18T02:08:37;62.88;;;26.00;;
32250;SDS011;41295;48.518;9.206;2022-12-18T02:10:52;62.42;;;25.90;;
32250;SDS011;41295;48.518;9.206;2022-12-18T02:13:08;68.85;;;26.85;;
32250;SDS011;41295;48.518;9.206;2022-12-18T02:15:18;72.13;;;26.73;;
32250;SDS011;41295;48.518;9.206;2022-12-18T02:17:28;62.55;;;26.17;;
32250;SDS011;41295;48.518;9.206;2022-12-18T02:19:41;72.03;;;27.83;;
32250;SDS011;41295;48.518;9.206;2022-12-18T02:21:51;69.85;;;26.95;;
32250;SDS011;41295;48.518;9.206;2022-12-18T02:24:03;68.57;;;27.95;;
32250;SDS011;41295;48.518;9.206;2022-12-18T02:26:19;67.00;;;28.73;;
32250;SDS011;41295;48.518;9.206;2022-12-18T02:28:31;64.55;;;27.92;;
32250;SDS011;41295;48.518;9.206;2022-12-18T02:30:38;69.38;;;28.92;;
32250;SDS011;41295;48.518;9.206;2022-12-18T02:32:44;67.90;;;27.00;;
32250;SDS011;41295;48.518;9.206;2022-12-18T02:34:51;61.08;;;25.98;;
32250;SDS011;41295;48.518;9.206;2022-12-18T02:36:57;65.47;;;26.83;;
32250;SDS011;41295;48.518;9.206;2022-12-18T02:39:02;73.05;;;28.60;;
32250;SDS011;41295;48.518;9.206;2022-12-18T02:41:09;64.45;;;26.30;;
32250;SDS011;41295;48.518;9.206;2022-12-18T02:43:15;71.45;;;28.30;;
32250;SDS011;41295;48.518;9.206;2022-12-18T02:45:18;72.85;;;27.13;;
32250;SDS011;41295;48.518;9.206;2022-12-18T02:47:21;72.68;;;28.13;;
32250;SDS011;41295;48.518;9.206;2022-12-18T02:49:28;69.30;;;26.83;;
32250;SDS011;41295;48.518;9.206;2022-12-18T02:53:47;63.67;;;24.88;;
32250;SDS011;41295;48.518;9.206;2022-12-18T02:55:58;65.68;;;27.08;;
32250;SDS011;41295;48.518;9.206;2022-12-18T02:58:10;69.88;;;27.15;;
32250;SDS011;41295;48.518;9.206;2022-12-18T03:00:19;61.72;;;25.42;;
32250;SDS011;41295;48.518;9.206;2022-12-18T03:02:26;61.28;;;25.58;;
32250;SDS011;41295;48.518;9.206;2022-12-18T03:04:36;71.57;;;28.45;;
32250;SDS011;41295;48.518;9.206;2022-12-18T03:06:46;66.25;;;25.70;;
32250;SDS011;41295;48.518;9.206;2022-12-18T03:08:53;62.03;;;25.75;;
32250;SDS011;41295;48.518;9.206;2022-12-18T03:11:01;69.18;;;27.10;;
32250;SDS011;41295;48.518;9.206;2022-12-18T03:13:07;65.65;;;27.05;;
32250;SDS011;41295;48.518;9.206;2022-12-18T03:15:14;67.63;;;27.25;;
32250;SDS011;41295;48.518;9.206;2022-12-18T03:17:22;73.22;;;28.00;;
32250;SDS011;41295;48.518;9.206;2022-12-18T03:19:27;80.07;;;30.25;;
32250;SDS011;41295;48.518;9.206;2022-12-18T03:21:34;76.35;;;28.65;;
32250;SDS011;41295;48.518;9.206;2022-12-18T03:23:43;81.75;;;30.40;;
32250;SDS011;41295;48.518;9.206;2022-12-18T03:25:50;90.82;;;32.05;;
32250;SDS011;41295;48.518;9.206;2022-12-18T03:27:56;78.47;;;29.80;;
32250;SDS011;41295;48.518;9.206;2022-12-18T03:30:04;86.50;;;29.38;;
32250;SDS011;41295;48.518;9.206;2022-12-18T03:32:09;81.30;;;30.23;;
32250;SDS011;41295;48.518;9.206;2022-12-18T03:34:16;78.07;;;29.40;;
32250;SDS011;41295;48.518;9.206;2022-12-18T03:36:24;75.30;;;29.20;;
32250;SDS011;41295;48.518;9.206;2022-12-18T03:38:27;77.72;;;29.77;;
32250;SDS011;41295;48.518;9.206;2022-12-18T03:40:31;76.07;;;29.60;;
32250;SDS011;41295;48.518;9.206;2022-12-18T03:42:44;73.65;;;27.38;;
32250;SDS011;41295;48.518;9.206;2022-12-18T03:44:52;77.07;;;28.50;;
32250;SDS011;41295;48.518;9.206;2022-12-18T03:47:02;71.30;;;27.17;;
32250;SDS011;41295;48.518;9.206;2022-12-18T03:49:10;74.03;;;28.17;;
32250;SDS011;41295;48.518;9.206;2022-12-18T03:51:18;77.30;;;28.08;;
32250;SDS011;41295;48.518;9.206;2022-12-18T03:53:29;75.73;;;28.30;;
32250;SDS011;41295;48.518;9.206;2022-12-18T03:55:37;76.93;;;27.52;;
32250;SDS011;41295;48.518;9.206;2022-12-18T03:57:41;67.57;;;26.60;;
32250;SDS011;41295;48.518;9.206;2022-12-18T03:59:47;73.97;;;26.38;;
32250;SDS011;41295;48.518;9.206;2022-12-18T04:01:52;74.28;;;26.33;;
32250;SDS011;41295;48.518;9.206;2022-12-18T04:03:57;64.85;;;25.75;;
32250;SDS011;41295;48.518;9.206;2022-12-18T04:06:02;71.80;;;26.40;;
32250;SDS011;41295;48.518;9.206;2022-12-18T04:08:08;68.13;;;25.40;;
32250;SDS011;41295;48.518;9.206;2022-12-18T04:10:10;79.32;;;26.92;;
32250;SDS011;41295;48.518;9.206;2022-12-18T04:12:14;76.10;;;28.02;;
32250;SDS011;41295;48.518;9.206;2022-12-18T04:14:17;71.40;;;28.88;;
32250;SDS011;41295;48.518;9.206;2022-12-18T04:16:19;80.35;;;28.77;;
32250;SDS011;41295;48.518;9.206;2022-12-18T04:18:22;74.13;;;27.15;;
32250;SDS011;41295;48.518;9.206;2022-12-18T04:20:25;75.47;;;26.35;;
32250;SDS011;41295;48.518;9.206;2022-12-18T04:22:27;72.78;;;26.13;;
32250;SDS011;41295;48.518;9.206;2022-12-18T04:24:31;71.68;;;26.05;;
32250;SDS011;41295;48.518;9.206;2022-12-18T04:26:34;72.53;;;26.92;;
32250;SDS011;41295;48.518;9.206;2022-12-18T04:28:37;67.93;;;25.30;;
32250;SDS011;41295;48.518;9.206;2022-12-18T04:30:39;70.70;;;26.17;;
32250;SDS011;41295;48.518;9.206;2022-12-18T04:32:42;67.93;;;26.38;;
32250;SDS011;41295;48.518;9.206;2022-12-18T04:34:52;66.97;;;25.63;;
32250;SDS011;41295;48.518;9.206;2022-12-18T04:36:54;69.85;;;25.75;;
32250;SDS011;41295;48.518;9.206;2022-12-18T04:38:57;63.00;;;23.90;;
32250;SDS011;41295;48.518;9.206;2022-12-18T04:41:01;59.35;;;23.60;;
32250;SDS011;41295;48.518;9.206;2022-12-18T04:43:04;59.28;;;23.95;;
32250;SDS011;41295;48.518;9.206;2022-12-18T04:45:07;59.42;;;25.00;;
32250;SDS011;41295;48.518;9.206;2022-12-18T04:47:11;63.97;;;24.40;;
32250;SDS011;41295;48.518;9.206;2022-12-18T04:49:13;72.03;;;26.65;;
32250;SDS011;41295;48.518;9.206;2022-12-18T04:51:19;67.90;;;26.38;;
32250;SDS011;41295;48.518;9.206;2022-12-18T04:53:27;68.72;;;26.02;;
32250;SDS011;41295;48.518;9.206;2022-12-18T04:55:29;73.30;;;27.05;;
32250;SDS011;41295;48.518;9.206;2022-12-18T04:57:33;65.90;;;25.30;;
32250;SDS011;41295;48.518;9.206;2022-12-18T04:59:36;71.60;;;26.88;;
32250;SDS011;41295;48.518;9.206;2022-12-18T05:01:38;68.38;;;25.17;;
32250;SDS011;41295;48.518;9.206;2022-12-18T05:03:42;66.32;;;25.08;;
32250;SDS011;41295;48.518;9.206;2022-12-18T05:05:48;65.32;;;25.90;;
32250;SDS011;41295;48.518;9.206;2022-12-18T05:07:51;57.53;;;23.35;;
32250;SDS011;41295;48.518;9.206;2022-12-18T05:09:57;66.20;;;25.38;;
32250;SDS011;41295;48.518;9.206;2022-12-18T05:12:00;72.22;;;27.40;;
32250;SDS011;41295;48.518;9.206;2022-12-18T05:14:06;65.72;;;25.67;;
32250;SDS011;41295;48.518;9.206;2022-12-18T05:16:09;63.47;;;25.73;;
32250;SDS011;41295;48.518;9.206;2022-12-18T05:18:12;71.20;;;26.77;;
32250;SDS011;41295;48.518;9.206;2022-12-18T05:20:15;72.65;;;27.33;;
32250;SDS011;41295;48.518;9.206;2022-12-18T05:22:19;69.38;;;24.75;;
32250;SDS011;41295;48.518;9.206;2022-12-18T05:24:21;71.07;;;27.33;;
32250;SDS011;41295;48.518;9.206;2022-12-18T05:26:24;68.38;;;27.10;;
32250;SDS011;41295;48.518;9.206;2022-12-18T05:28:27;66.50;;;25.05;;
32250;SDS011;41295;48.518;9.206;2022-12-18T05:30:33;69.78;;;26.85;;
32250;SDS011;41295;48.518;9.206;2022-12-18T05:32:36;59.85;;;24.98;;
32250;SDS011;41295;48.518;9.206;2022-12-18T05:34:39;67.15;;;25.77;;
32250;SDS011;41295;48.518;9.206;2022-12-18T05:36:42;63.92;;;25.65;;
32250;SDS011;41295;48.518;9.206;2022-12-18T05:38:45;65.30;;;25.05;;
32250;SDS011;41295;48.518;9.206;2022-12-18T05:40:47;66.55;;;25.60;;
32250;SDS011;41295;48.518;9.206;2022-12-18T05:42:50;63.33;;;25.48;;
32250;SDS011;41295;48.518;9.206;2022-12-18T05:44:53;67.05;;;26.50;;
32250;SDS011;41295;48.518;9.206;2022-12-18T05:46:57;65.70;;;26.15;;
32250;SDS011;41295;48.518;9.206;2022-12-18T05:49:00;66.47;;;25.65;;
32250;SDS011;41295;48.518;9.206;2022-12-18T05:51:03;68.32;;;26.75;;
32250;SDS011;41295;48.518;9.206;2022-12-18T05:53:08;66.35;;;24.92;;
32250;SDS011;41295;48.518;9.206;2022-12-18T05:55:11;64.78;;;25.38;;
32250;SDS011;41295;48.518;9.206;2022-12-18T05:57:14;62.40;;;25.13;;
32250;SDS011;41295;48.518;9.206;2022-12-18T05:59:17;65.13;;;24.55;;
32250;SDS011;41295;48.518;9.206;2022-12-18T06:01:20;67.88;;;25.80;;
32250;SDS011;41295;48.518;9.206;2022-12-18T06:03:26;64.22;;;24.52;;
32250;SDS011;41295;48.518;9.206;2022-12-18T06:05:34;59.33;;;23.70;;
32250;SDS011;41295;48.518;9.206;2022-12-18T06:07:38;59.65;;;24.30;;
32250;SDS011;41295;48.518;9.206;2022-12-18T06:09:41;63.90;;;23.38;;
32250;SDS011;41295;48.518;9.206;2022-12-18T06:11:43;66.72;;;24.58;;
32250;SDS011;41295;48.518;9.206;2022-12-18T06:13:49;61.72;;;24.60;;
32250;SDS011;41295;48.518;9.206;2022-12-18T06:16:00;47.35;;;19.33;;
32250;SDS011;41295;48.518;9.206;2022-12-18T06:18:04;62.33;;;24.85;;
32250;SDS011;41295;48.518;9.206;2022-12-18T06:20:09;71.57;;;26.20;;
32250;SDS011;41295;48.518;9.206;2022-12-18T06:22:11;64.72;;;25.38;;
32250;SDS011;41295;48.518;9.206;2022-12-18T06:24:14;72.03;;;27.55;;
32250;SDS011;41295;48.518;9.206;2022-12-18T06:26:17;75.88;;;27.17;;
32250;SDS011;41295;48.518;9.206;2022-12-18T06:28:27;67.30;;;26.27;;
32250;SDS011;41295;48.518;9.206;2022-12-18T06:30:30;86.60;;;29.35;;
32250;SDS011;41295;48.518;9.206;2022-12-18T06:32:33;75.47;;;27.05;;
32250;SDS011;41295;48.518;9.206;2022-12-18T06:34:36;73.18;;;27.58;;
32250;SDS011;41295;48.518;9.206;2022-12-18T06:36:41;68.72;;;26.17;;
32250;SDS011;41295;48.518;9.206;2022-12-18T06:38:43;65.55;;;24.98;;
32250;SDS011;41295;48.518;9.206;2022-12-18T06:40:46;88.95;;;33.83;;
32250;SDS011;41295;48.518;9.206;2022-12-18T06:42:49;82.82;;;33.88;;
32250;SDS011;41295;48.518;9.206;2022-12-18T06:44:51;90.35;;;33.83;;
32250;SDS011;41295;48.518;9.206;2022-12-18T06:46:54;96.72;;;35.75;;
32250;SDS011;41295;48.518;9.206;2022-12-18T06:48:57;104.10;;;38.17;;
32250;SDS011;41295;48.518;9.206;2022-12-18T06:51:00;72.95;;;28.17;;
32250;SDS011;41295;48.518;9.206;2022-12-18T06:53:05;66.32;;;25.40;;
32250;SDS011;41295;48.518;9.206;2022-12-18T06:55:07;72.78;;;26.23;;
32250;SDS011;41295;48.518;9.206;2022-12-18T06:57:10;77.80;;;26.85;;
32250;SDS011;41295;48.518;9.206;2022-12-18T06:59:13;66.30;;;24.42;;
32250;SDS011;41295;48.518;9.206;2022-12-18T07:01:16;64.35;;;25.00;;
32250;SDS011;41295;48.518;9.206;2022-12-18T07:03:19;62.03;;;23.80;;
32250;SDS011;41295;48.518;9.206;2022-12-18T07:05:22;56.88;;;22.42;;
32250;SDS011;41295;48.518;9.206;2022-12-18T07:07:26;59.92;;;25.13;;
32250;SDS011;41295;48.518;9.206;2022-12-18T07:09:30;60.80;;;23.00;;
32250;SDS011;41295;48.518;9.206;2022-12-18T07:11:33;64.43;;;25.45;;
32250;SDS011;41295;48.518;9.206;2022-12-18T07:13:36;65.45;;;24.33;;
32250;SDS011;41295;48.518;9.206;2022-12-18T07:15:39;72.00;;;26.02;;
32250;SDS011;41295;48.518;9.206;2022-12-18T07:17:43;65.10;;;24.95;;
32250;SDS011;41295;48.518;9.206;2022-12-18T07:19:45;65.10;;;25.20;;
32250;SDS011;41295;48.518;9.206;2022-12-18T07:21:49;72.45;;;24.85;;
32250;SDS011;41295;48.518;9.206;2022-12-18T07:23:52;67.40;;;23.98;;
32250;SDS011;41295;48.518;9.206;2022-12-18T07:25:59;65.22;;;24.88;;
32250;SDS011;41295;48.518;9.206;2022-12-18T07:28:03;70.03;;;25.85;;
32250;SDS011;41295;48.518;9.206;2022-12-18T07:30:07;71.80;;;25.50;;
32250;SDS011;41295;48.518;9.206;2022-12-18T07:32:11;73.32;;;25.90;;
32250;SDS011;41295;48.518;9.206;2022-12-18T07:34:14;72.45;;;26.02;;
32250;SDS011;41295;48.518;9.206;2022-12-18T07:36:17;60.05;;;22.98;;
32250;SDS011;41295;48.518;9.206;2022-12-18T07:38:20;67.95;;;26.20;;
32250;SDS011;41295;48.518;9.206;2022-12-18T07:40:23;67.07;;;24.48;;
32250;SDS011;41295;48.518;9.206;2022-12-18T07:42:27;67.82;;;24.95;;
32250;SDS011;41295;48.518;9.206;2022-12-18T07:44:33;63.58;;;25.27;;
32250;SDS011;41295;48.518;9.206;2022-12-18T07:46:35;69.32;;;24.75;;
32250;SDS011;41295;48.518;9.206;2022-12-18T07:48:38;65.72;;;24.13;;
32250;SDS011;41295;48.518;9.206;2022-12-18T07:50:41;64.93;;;24.52;;
32250;SDS011;41295;48.518;9.206;2022-12-18T07:52:43;66.47;;;23.83;;
32250;SDS011;41295;48.518;9.206;2022-12-18T07:54:46;79.15;;;25.90;;
32250;SDS011;41295;48.518;9.206;2022-12-18T07:56:51;66.63;;;24.48;;
32250;SDS011;41295;48.518;9.206;2022-12-18T07:58:55;61.65;;;23.90;;
32250;SDS011;41295;48.518;9.206;2022-12-18T08:01:02;63.17;;;24.25;;
32250;SDS011;41295;48.518;9.206;2022-12-18T08:03:06;62.78;;;23.27;;
32250;SDS011;41295;48.518;9.206;2022-12-18T08:05:09;62.28;;;23.73;;
32250;SDS011;41295;48.518;9.206;2022-12-18T08:07:11;69.18;;;23.85;;
32250;SDS011;41295;48.518;9.206;2022-12-18T08:09:15;59.42;;;22.98;;
32250;SDS011;41295;48.518;9.206;2022-12-18T08:11:17;68.43;;;24.63;;
32250;SDS011;41295;48.518;9.206;2022-12-18T08:13:21;68.30;;;24.02;;
32250;SDS011;41295;48.518;9.206;2022-12-18T08:15:25;67.88;;;24.98;;
32250;SDS011;41295;48.518;9.206;2022-12-18T08:17:28;63.85;;;24.33;;
32250;SDS011;41295;48.518;9.206;2022-12-18T08:19:30;72.65;;;25.33;;
32250;SDS011;41295;48.518;9.206;2022-12-18T08:21:33;66.18;;;25.23;;
32250;SDS011;41295;48.518;9.206;2022-12-18T08:23:36;69.95;;;26.50;;
32250;SDS011;41295;48.518;9.206;2022-12-18T08:25:43;70.32;;;29.30;;
32250;SDS011;41295;48.518;9.206;2022-12-18T08:27:46;65.47;;;27.35;;
32250;SDS011;41295;48.518;9.206;2022-12-18T08:29:48;68.47;;;28.02;;
32250;SDS011;41295;48.518;9.206;2022-12-18T08:31:52;75.35;;;28.98;;
32250;SDS011;41295;48.518;9.206;2022-12-18T08:33:55;69.13;;;27.00;;
32250;SDS011;41295;48.518;9.206;2022-12-18T08:35:59;73.32;;;27.05;;
32250;SDS011;41295;48.518;9.206;2022-12-18T08:38:02;66.97;;;26.33;;
32250;SDS011;41295;48.518;9.206;2022-12-18T08:40:05;66.90;;;25.23;;
32250;SDS011;41295;48.518;9.206;2022-12-18T08:42:09;68.25;;;25.77;;
32250;SDS011;41295;48.518;9.206;2022-12-18T08:44:30;65.90;;;25.23;;
32250;SDS011;41295;48.518;9.206;2022-12-18T08:46:42;63.17;;;25.35;;
32250;SDS011;41295;48.518;9.206;2022-12-18T08:48:47;70.20;;;26.38;;
32250;SDS011;41295;48.518;9.206;2022-12-18T08:50:53;70.95;;;24.92;;
32250;SDS011;41295;48.518;9.206;2022-12-18T08:52:57;72.88;;;26.33;;
32250;SDS011;41295;48.518;9.206;2022-12-18T08:54:59;65.05;;;26.25;;
32250;SDS011;41295;48.518;9.206;2022-12-18T08:57:02;64.13;;;23.77;;
32250;SDS011;41295;48.518;9.206;2022-12-18T08:59:05;62.50;;;26.10;;
32250;SDS011;41295;48.518;9.206;2022-12-18T09:01:09;70.18;;;25.25;;
32250;SDS011;41295;48.518;9.206;2022-12-18T09:03:15;68.80;;;25.83;;
32250;SDS011;41295;48.518;9.206;2022-12-18T09:05:20;61.42;;;25.73;;
32250;SDS011;41295;48.518;9.206;2022-12-18T09:07:23;75.05;;;26.50;;
32250;SDS011;41295;48.518;9.206;2022-12-18T09:09:25;65.65;;;26.40;;
32250;SDS011;41295;48.518;9.206;2022-12-18T09:11:28;69.15;;;28.48;;
32250;SDS011;41295;48.518;9.206;2022-12-18T09:13:31;79.85;;;30.85;;
32250;SDS011;41295;48.518;9.206;2022-12-18T09:15:34;74.18;;;29.00;;
32250;SDS011;41295;48.518;9.206;2022-12-18T09:17:41;83.68;;;31.08;;
32250;SDS011;41295;48.518;9.206;2022-12-18T09:19:44;82.57;;;30.90;;
32250;SDS011;41295;48.518;9.206;2022-12-18T09:21:48;81.43;;;31.42;;
32250;SDS011;41295;48.518;9.206;2022-12-18T09:23:51;76.35;;;29.88;;
32250;SDS011;41295;48.518;9.206;2022-12-18T09:25:58;78.13;;;28.48;;
32250;SDS011;41295;48.518;9.206;2022-12-18T09:28:01;75.82;;;30.05;;
32250;SDS011;41295;48.518;9.206;2022-12-18T09:30:04;80.53;;;30.63;;
32250;SDS011;41295;48.518;9.206;2022-12-18T09:32:08;77.95;;;29.08;;
32250;SDS011;41295;48.518;9.206;2022-12-18T09:34:10;77.55;;;29.65;;
32250;SDS011;41295;48.518;9.206;2022-12-18T09:36:14;86.93;;;30.48;;
32250;SDS011;41295;48.518;9.206;2022-12-18T09:38:20;86.45;;;31.42;;
32250;SDS011;41295;48.518;9.206;2022-12-18T09:40:25;80.90;;;31.90;;
32250;SDS011;41295;48.518;9.206;2022-12-18T09:42:31;81.30;;;33.50;;
32250;SDS011;41295;48.518;9.206;2022-12-18T09:44:35;77.78;;;30.30;;
32250;SDS011;41295;48.518;9.206;2022-12-18T09:46:47;80.03;;;29.58;;
32250;SDS011;41295;48.518;9.206;2022-12-18T09:48:54;85.57;;;30.83;;
32250;SDS011;41295;48.518;9.206;2022-12-18T09:51:02;83.95;;;32.25;;
32250;SDS011;41295;48.518;9.206;2022-12-18T09:53:12;78.45;;;30.52;;
32250;SDS011;41295;48.518;9.206;2022-12-18T09:55:22;74.38;;;30.42;;
32250;SDS011;41295;48.518;9.206;2022-12-18T09:57:37;82.22;;;29.95;;
32250;SDS011;41295;48.518;9.206;2022-12-18T09:59:46;86.03;;;30.60;;
32250;SDS011;41295;48.518;9.206;2022-12-18T10:01:52;90.63;;;31.45;;
32250;SDS011;41295;48.518;9.206;2022-12-18T10:03:55;85.03;;;30.30;;
32250;SDS011;41295;48.518;9.206;2022-12-18T10:06:00;80.30;;;31.02;;
32250;SDS011;41295;48.518;9.206;2022-12-18T10:08:10;82.88;;;31.35;;
32250;SDS011;41295;48.518;9.206;2022-12-18T10:10:21;81.88;;;31.98;;
32250;SDS011;41295;48.518;9.206;2022-12-18T10:14:36;89.55;;;32.35;;
32250;SDS011;41295;48.518;9.206;2022-12-18T10:16:52;83.57;;;32.03;;
32250;SDS011;41295;48.518;9.206;2022-12-18T10:19:05;88.10;;;32.70;;
32250;SDS011;41295;48.518;9.206;2022-12-18T10:21:21;84.43;;;32.58;;
32250;SDS011;41295;48.518;9.206;2022-12-18T10:23:32;97.20;;;34.53;;
32250;SDS011;41295;48.518;9.206;2022-12-18T10:25:51;99.13;;;35.25;;
32250;SDS011;41295;48.518;9.206;2022-12-18T10:27:59;109.40;;;39.35;;
32250;SDS011;41295;48.518;9.206;2022-12-18T10:30:12;97.53;;;36.35;;
32250;SDS011;41295;48.518;9.206;2022-12-18T10:32:17;95.82;;;37.15;;
32250;SDS011;41295;48.518;9.206;2022-12-18T10:34:23;103.35;;;38.25;;
32250;SDS011;41295;48.518;9.206;2022-12-18T10:36:26;97.95;;;36.83;;
32250;SDS011;41295;48.518;9.206;2022-12-18T10:38:29;97.80;;;38.08;;
32250;SDS011;41295;48.518;9.206;2022-12-18T10:40:33;92.88;;;36.90;;
32250;SDS011;41295;48.518;9.206;2022-12-18T10:42:58;94.75;;;36.40;;
32250;SDS011;41295;48.518;9.206;2022-12-18T10:45:09;97.82;;;37.63;;
32250;SDS011;41295;48.518;9.206;2022-12-18T10:47:14;99.50;;;38.00;;
32250;SDS011;41295;48.518;9.206;2022-12-18T10:49:24;92.05;;;35.38;;
32250;SDS011;41295;48.518;9.206;2022-12-18T10:51:29;96.47;;;35.58;;
32250;SDS011;41295;48.518;9.206;2022-12-18T10:53:35;95.68;;;34.97;;
32250;SDS011;41295;48.518;9.206;2022-12-18T10:55:39;105.10;;;38.55;;
32250;SDS011;41295;48.518;9.206;2022-12-18T10:57:48;96.97;;;36.35;;
32250;SDS011;41295;48.518;9.206;2022-12-18T10:59:52;86.82;;;35.97;;
32250;SDS011;41295;48.518;9.206;2022-12-18T11:01:57;89.97;;;34.80;;
32250;SDS011;41295;48.518;9.206;2022-12-18T11:04:01;102.45;;;37.92;;
32250;SDS011;41295;48.518;9.206;2022-12-18T11:06:11;96.30;;;38.78;;
32250;SDS011;41295;48.518;9.206;2022-12-18T11:08:19;101.38;;;37.50;;
32250;SDS011;41295;48.518;9.206;2022-12-18T11:10:25;99.72;;;37.40;;
32250;SDS011;41295;48.518;9.206;2022-12-18T11:12:32;102.50;;;38.05;;
32250;SDS011;41295;48.518;9.206;2022-12-18T11:14:41;101.10;;;39.03;;
32250;SDS011;41295;48.518;9.206;2022-12-18T11:16:49;100.28;;;39.83;;
32250;SDS011;41295;48.518;9.206;2022-12-18T11:19:17;105.28;;;39.83;;
32250;SDS011;41295;48.518;9.206;2022-12-18T11:21:28;106.35;;;41.05;;
32250;SDS011;41295;48.518;9.206;2022-12-18T11:23:31;106.50;;;40.03;;
32250;SDS011;41295;48.518;9.206;2022-12-18T11:25:33;109.53;;;41.33;;
32250;SDS011;41295;48.518;9.206;2022-12-18T11:27:37;111.88;;;41.70;;
32250;SDS011;41295;48.518;9.206;2022-12-18T11:29:40;108.10;;;41.03;;
32250;SDS011;41295;48.518;9.206;2022-12-18T11:31:48;115.45;;;42.95;;
32250;SDS011;41295;48.518;9.206;2022-12-18T11:33:59;109.97;;;42.40;;
32250;SDS011;41295;48.518;9.206;2022-12-18T11:36:24;103.97;;;41.95;;
32250;SDS011;41295;48.518;9.206;2022-12-18T11:38:31;110.57;;;44.22;;
32250;SDS011;41295;48.518;9.206;2022-12-18T11:40:36;106.75;;;41.53;;
32250;SDS011;41295;48.518;9.206;2022-12-18T11:42:44;105.32;;;42.75;;
32250;SDS011;41295;48.518;9.206;2022-12-18T11:44:50;102.57;;;40.70;;
32250;SDS011;41295;48.518;9.206;2022-12-18T11:46:59;100.03;;;40.90;;
32250;SDS011;41295;48.518;9.206;2022-12-18T11:49:07;108.05;;;41.67;;
32250;SDS011;41295;48.518;9.206;2022-12-18T11:51:17;98.07;;;39.63;;
32250;SDS011;41295;48.518;9.206;2022-12-18T11:53:27;109.53;;;42.03;;
32250;SDS011;41295;48.518;9.206;2022-12-18T11:55:42;111.15;;;43.05;;
32250;SDS011;41295;48.518;9.206;2022-12-18T11:57:55;99.97;;;40.75;;
32250;SDS011;41295;48.518;9.206;2022-12-18T12:00:04;116.07;;;42.08;;
32250;SDS011;41295;48.518;9.206;2022-12-18T12:02:21;102.82;;;41.33;;
32250;SDS011;41295;48.518;9.206;2022-12-18T12:04:46;104.78;;;41.88;;
32250;SDS011;41295;48.518;9.206;2022-12-18T12:07:00;114.10;;;41.08;;
32250;SDS011;41295;48.518;9.206;2022-12-18T12:09:16;106.03;;;42.75;;
32250;SDS011;41295;48.518;9.206;2022-12-18T12:11:27;103.43;;;41.08;;
32250;SDS011;41295;48.518;9.206;2022-12-18T12:13:39;111.72;;;42.00;;
32250;SDS011;41295;48.518;9.206;2022-12-18T12:15:51;109.18;;;42.78;;
32250;SDS011;41295;48.518;9.206;2022-12-18T12:18:05;117.38;;;43.25;;